createdAt,value
2019-01-04T00:00:56.415Z,103132.28
2019-01-04T00:01:58.370Z,103134.73
2019-01-04T00:03:00.320Z,103135.25
2019-01-04T00:04:02.264Z,103132.28
2019-01-04T00:05:04.235Z,103136.34
2019-01-04T00:06:06.176Z,103140.82
2019-01-04T00:07:08.195Z,103142.48
2019-01-04T00:08:10.129Z,103136.55
2019-01-04T00:09:12.134Z,103141.03
2019-01-04T00:10:14.107Z,103139.52
2019-01-04T00:11:16.040Z,103140.66
2019-01-04T00:12:18.066Z,103140.09
2019-01-04T00:13:20.009Z,103138.79
2019-01-04T00:14:22.019Z,103137.85
2019-01-04T00:15:23.977Z,103139.73
2019-01-04T00:16:26.070Z,103134.31
2019-01-04T00:17:28.010Z,103133.38
2019-01-04T00:18:29.978Z,103130.56
2019-01-04T00:19:31.975Z,103127.02
2019-01-04T00:20:33.974Z,103129.47
2019-01-04T00:21:36.004Z,103129.84
2019-01-04T00:22:37.942Z,103120.52
2019-01-04T00:23:39.900Z,103125.93
2019-01-04T00:24:41.931Z,103135.04
2019-01-04T00:25:43.907Z,103128.53
2019-01-04T00:26:45.858Z,103132.08
2019-01-04T00:27:47.794Z,103123.90
2019-01-04T00:28:52.104Z,103119.42
2019-01-04T00:29:54.054Z,103121.09
2019-01-04T00:30:56.026Z,103116.61
2019-01-04T00:31:57.963Z,103116.98
2019-01-04T00:32:59.944Z,103116.98
2019-01-04T00:34:02.526Z,103117.70
2019-01-04T00:35:04.465Z,103116.52
2019-01-04T00:36:06.421Z,103120.06
2019-01-04T00:37:08.432Z,103123.24
2019-01-04T00:38:10.366Z,103118.03
2019-01-04T00:39:12.305Z,103120.52
2019-01-04T00:40:14.240Z,103119.58
2019-01-04T00:41:16.206Z,103116.61
2019-01-04T00:42:18.234Z,103126.09
2019-01-04T00:43:20.183Z,103127.75
2019-01-04T00:44:22.195Z,103124.54
2019-01-04T00:45:24.146Z,103128.33
2019-01-04T00:46:26.115Z,103128.69
2019-01-04T00:47:28.048Z,103131.41
2019-01-04T00:48:29.996Z,103127.14
2019-01-04T00:49:31.940Z,103131.41
2019-01-04T00:50:33.886Z,103126.36
2019-01-04T00:51:35.843Z,103125.84
2019-01-04T00:52:37.785Z,103130.84
2019-01-04T00:53:39.734Z,103127.87
2019-01-04T00:54:41.828Z,103123.03
2019-01-04T00:55:43.853Z,103124.91
2019-01-04T00:56:45.802Z,103119.49
2019-01-04T00:57:47.737Z,103120.42
2019-01-04T00:58:49.684Z,103116.52
2019-01-04T00:59:51.621Z,103105.91
2019-01-04T01:00:53.566Z,103110.59
2019-01-04T01:01:55.544Z,103106.11
2019-01-04T01:02:57.475Z,103102.94
2019-01-04T01:03:59.419Z,103109.08
2019-01-04T01:05:01.362Z,103105.91
2019-01-04T01:06:03.323Z,103102.57
2019-01-04T01:07:05.297Z,103107.41
2019-01-04T01:08:07.260Z,103105.17
2019-01-04T01:09:09.192Z,103102.00
2019-01-04T01:10:11.140Z,103106.48
2019-01-04T01:11:13.082Z,103104.23
2019-01-04T01:12:15.519Z,103106.11
2019-01-04T01:13:19.642Z,103107.98
2019-01-04T01:14:21.574Z,103105.75
2019-01-04T01:15:23.553Z,103107.05
2019-01-04T01:16:25.522Z,103102.00
2019-01-04T01:17:27.511Z,103092.16
2019-01-04T01:18:29.440Z,103097.73
2019-01-04T01:19:31.389Z,103089.35
2019-01-04T01:20:33.398Z,103089.35
2019-01-04T01:21:35.356Z,103088.05
2019-01-04T01:22:37.346Z,103086.17
2019-01-04T01:23:39.364Z,103088.78
2019-01-04T01:24:41.324Z,103090.08
2019-01-04T01:25:43.357Z,103089.14
2019-01-04T01:26:45.294Z,103085.81
2019-01-04T01:27:47.265Z,103086.17
2019-01-04T01:28:49.214Z,103087.11
2019-01-04T01:29:51.152Z,103085.45
2019-01-04T01:30:53.082Z,103083.20
2019-01-04T01:31:58.034Z,103083.41
2019-01-04T01:33:00.004Z,103077.64
2019-01-04T01:34:02.006Z,103078.00
2019-01-04T01:35:03.956Z,103078.37
2019-01-04T01:36:05.913Z,103068.53
2019-01-04T01:37:07.874Z,103075.97
2019-01-04T01:38:09.862Z,103072.07
2019-01-04T01:39:12.015Z,103075.24
2019-01-04T01:40:13.956Z,103073.37
2019-01-04T01:41:15.976Z,103072.44
2019-01-04T01:42:17.913Z,103066.50
2019-01-04T01:43:19.920Z,103068.53
2019-01-04T01:44:21.918Z,103065.35
2019-01-04T01:45:23.861Z,103069.83
2019-01-04T01:46:25.799Z,103066.66
2019-01-04T01:47:27.754Z,103067.39
2019-01-04T01:48:29.985Z,103064.99
2019-01-04T01:49:32.000Z,103065.92
2019-01-04T01:50:33.984Z,103060.15
2019-01-04T01:51:35.946Z,103060.52
2019-01-04T01:52:37.951Z,103058.27
2019-01-04T01:53:39.929Z,103063.12
2019-01-04T01:54:41.861Z,103057.70
2019-01-04T01:55:43.798Z,103058.84
2019-01-04T01:56:45.804Z,103059.78
2019-01-04T01:57:47.741Z,103054.95
2019-01-04T01:58:49.774Z,103052.34
2019-01-04T01:59:51.731Z,103046.77
2019-01-04T02:00:53.659Z,103049.38
2019-01-04T02:01:55.609Z,103037.09
2019-01-04T02:02:57.551Z,103034.28
2019-01-04T02:03:59.524Z,103026.11
2019-01-04T02:05:01.543Z,103024.08
2019-01-04T02:06:03.489Z,103028.92
2019-01-04T02:07:05.445Z,103030.02
2019-01-04T02:08:07.384Z,103020.38
2019-01-04T02:09:11.698Z,103024.28
2019-01-04T02:10:13.639Z,103021.68
2019-01-04T02:11:15.588Z,103025.95
2019-01-04T02:12:17.602Z,103022.05
2019-01-04T02:13:19.531Z,103018.88
2019-01-04T02:14:21.563Z,103016.27
2019-01-04T02:15:23.573Z,103016.84
2019-01-04T02:16:25.522Z,103017.41
2019-01-04T02:17:27.532Z,103017.77
2019-01-04T02:18:29.476Z,103018.88
2019-01-04T02:19:31.441Z,103019.44
2019-01-04T02:20:33.392Z,103013.88
2019-01-04T02:21:35.334Z,103013.30
2019-01-04T02:22:37.285Z,103011.27
2019-01-04T02:23:39.308Z,103015.53
2019-01-04T02:24:41.360Z,103016.47
2019-01-04T02:25:43.299Z,103019.80
2019-01-04T02:26:45.233Z,103016.84
2019-01-04T02:27:47.167Z,103012.36
2019-01-04T02:28:49.164Z,103011.06
2019-01-04T02:29:51.212Z,103012.94
2019-01-04T02:30:53.158Z,103013.30
2019-01-04T02:31:55.192Z,103008.67
2019-01-04T02:32:57.145Z,103010.33
2019-01-04T02:33:59.085Z,103016.11
2019-01-04T02:35:03.225Z,103002.52
2019-01-04T02:36:05.185Z,103000.08
2019-01-04T02:37:07.179Z,103005.86
2019-01-04T02:38:09.198Z,102995.08
2019-01-04T02:39:11.147Z,102994.52
2019-01-04T02:40:15.338Z,102994.14
2019-01-04T02:41:17.354Z,102996.02
2019-01-04T02:42:21.458Z,102992.84
2019-01-04T02:43:23.389Z,102984.83
2019-01-04T02:44:25.334Z,102984.47
2019-01-04T02:45:27.384Z,102979.27
2019-01-04T02:46:29.319Z,102981.50
2019-01-04T02:47:31.271Z,102984.67
2019-01-04T02:48:35.239Z,102984.67
2019-01-04T02:49:36.958Z,102983.38
2019-01-04T02:50:40.757Z,102983.16
2019-01-04T02:51:42.722Z,102979.27
2019-01-04T02:52:44.743Z,102981.50
2019-01-04T02:53:50.491Z,102978.53
2019-01-04T02:54:52.435Z,102981.86
2019-01-04T02:55:56.409Z,102972.39
2019-01-04T02:56:58.067Z,102974.05
2019-01-04T02:58:00.008Z,102963.64
2019-01-04T02:59:02.025Z,102964.38
2019-01-04T03:00:03.974Z,102966.81
2019-01-04T03:01:06.088Z,102960.47
2019-01-04T03:02:10.935Z,102957.50
2019-01-04T03:03:15.009Z,102953.60
2019-01-04T03:04:16.947Z,102950.27
2019-01-04T03:05:21.574Z,102940.59
2019-01-04T03:06:23.617Z,102933.34
2019-01-04T03:07:25.554Z,102926.64
2019-01-04T03:08:27.508Z,102921.06
2019-01-04T03:09:29.450Z,102921.80
2019-01-04T03:10:31.402Z,102923.47
2019-01-04T03:11:33.433Z,102919.20
2019-01-04T03:12:35.375Z,102921.44
2019-01-04T03:13:37.392Z,102911.75
2019-01-04T03:14:39.422Z,102900.61
2019-01-04T03:15:45.080Z,102911.96
2019-01-04T03:16:47.049Z,102916.43
2019-01-04T03:17:48.990Z,102913.47
2019-01-04T03:18:50.990Z,102905.09
2019-01-04T03:19:52.940Z,102906.75
2019-01-04T03:20:54.876Z,102903.22
2019-01-04T03:21:56.836Z,102918.47
2019-01-04T03:22:58.772Z,102911.02
2019-01-04T03:24:00.789Z,102914.20
2019-01-04T03:25:02.725Z,102902.28
2019-01-04T03:26:04.758Z,102908.98
2019-01-04T03:27:09.335Z,102916.80
2019-01-04T03:28:11.277Z,102919.77
2019-01-04T03:29:13.228Z,102910.30
2019-01-04T03:30:15.170Z,102919.40
2019-01-04T03:31:17.097Z,102908.79
2019-01-04T03:32:19.065Z,102897.64
2019-01-04T03:33:21.077Z,102910.30
2019-01-04T03:34:23.012Z,102898.95
2019-01-04T03:35:24.959Z,102907.33
2019-01-04T03:36:26.908Z,102901.55
2019-01-04T03:37:28.894Z,102893.53
2019-01-04T03:38:30.834Z,102896.91
2019-01-04T03:39:34.898Z,102898.22
2019-01-04T03:40:36.904Z,102891.50
2019-01-04T03:41:38.840Z,102888.17
2019-01-04T03:42:40.816Z,102881.30
2019-01-04T03:43:42.757Z,102885.00
2019-01-04T03:44:44.682Z,102879.06
2019-01-04T03:45:46.614Z,102877.39
2019-01-04T03:46:48.556Z,102877.39
2019-01-04T03:47:50.519Z,102872.92
2019-01-04T03:48:52.457Z,102863.25
2019-01-04T03:49:54.385Z,102865.11
2019-01-04T03:50:58.645Z,102866.05
2019-01-04T03:52:00.618Z,102862.52
2019-01-04T03:53:02.649Z,102859.91
2019-01-04T03:54:04.658Z,102864.75
2019-01-04T03:55:06.599Z,102862.52
2019-01-04T03:56:08.545Z,102861.94
2019-01-04T03:57:10.485Z,102861.01
2019-01-04T03:58:12.455Z,102854.50
2019-01-04T03:59:14.389Z,102853.56
2019-01-04T04:00:16.317Z,102855.44
2019-01-04T04:01:18.288Z,102842.22
2019-01-04T04:02:20.306Z,102840.55
2019-01-04T04:03:22.354Z,102838.69
2019-01-04T04:04:24.363Z,102832.18
2019-01-04T04:05:26.315Z,102836.65
2019-01-04T04:06:28.374Z,102828.11
2019-01-04T04:07:30.348Z,102822.91
2019-01-04T04:08:32.313Z,102829.41
2019-01-04T04:09:34.336Z,102816.40
2019-01-04T04:10:36.276Z,102813.43
2019-01-04T04:11:38.228Z,102811.56
2019-01-04T04:12:40.243Z,102806.36
2019-01-04T04:13:42.281Z,102798.55
2019-01-04T04:14:44.226Z,102800.78
2019-01-04T04:15:46.172Z,102799.48
2019-01-04T04:16:48.180Z,102797.81
2019-01-04T04:17:50.197Z,102797.25
2019-01-04T04:18:52.236Z,102792.98
2019-01-04T04:19:54.166Z,102797.45
2019-01-04T04:20:56.107Z,102799.12
2019-01-04T04:21:58.036Z,102798.75
2019-01-04T04:22:59.996Z,102802.28
2019-01-04T04:24:02.032Z,102813.80
2019-01-04T04:25:03.980Z,102803.95
2019-01-04T04:26:06.072Z,102808.22
2019-01-04T04:27:08.008Z,102811.20
2019-01-04T04:28:09.953Z,102812.70
2019-01-04T04:29:12.008Z,102822.38
2019-01-04T04:30:13.950Z,102821.80
2019-01-04T04:31:15.894Z,102826.44
2019-01-04T04:32:17.835Z,102816.97
2019-01-04T04:33:19.771Z,102817.91
2019-01-04T04:34:21.762Z,102814.36
2019-01-04T04:35:26.864Z,102814.00
2019-01-04T04:36:28.806Z,102815.30
2019-01-04T04:37:30.834Z,102817.91
2019-01-04T04:38:32.857Z,102818.27
2019-01-04T04:39:34.894Z,102811.20
2019-01-04T04:40:36.822Z,102805.79
2019-01-04T04:41:38.849Z,102805.63
2019-01-04T04:42:40.789Z,102810.26
2019-01-04T04:43:42.718Z,102799.12
2019-01-04T04:44:44.661Z,102795.22
2019-01-04T04:45:46.594Z,102800.42
2019-01-04T04:46:48.540Z,102789.44
2019-01-04T04:47:50.556Z,102799.84
2019-01-04T04:48:54.639Z,102795.95
2019-01-04T04:49:56.602Z,102798.18
2019-01-04T04:50:58.553Z,102796.31
2019-01-04T04:52:00.502Z,102796.68
2019-01-04T04:53:02.527Z,102795.22
2019-01-04T04:54:04.540Z,102795.58
2019-01-04T04:55:06.511Z,102798.75
2019-01-04T04:56:08.434Z,102791.31
2019-01-04T04:57:10.367Z,102779.03
2019-01-04T04:58:12.372Z,102776.23
2019-01-04T04:59:14.305Z,102778.09
2019-01-04T05:00:16.279Z,102775.50
2019-01-04T05:01:18.314Z,102776.59
2019-01-04T05:02:20.317Z,102778.66
2019-01-04T05:03:22.253Z,102777.00
2019-01-04T05:04:24.199Z,102775.13
2019-01-04T05:05:26.177Z,102774.56
2019-01-04T05:06:29.275Z,102780.70
2019-01-04T05:07:31.215Z,102773.83
2019-01-04T05:08:33.225Z,102775.13
2019-01-04T05:09:37.570Z,102777.36
2019-01-04T05:10:39.540Z,102773.66
2019-01-04T05:11:41.489Z,102778.66
2019-01-04T05:12:43.439Z,102782.00
2019-01-04T05:13:45.449Z,102782.00
2019-01-04T05:14:47.391Z,102776.42
2019-01-04T05:15:49.358Z,102779.40
2019-01-04T05:16:51.290Z,102782.37
2019-01-04T05:17:53.235Z,102776.06
2019-01-04T05:18:55.174Z,102771.59
2019-01-04T05:19:57.123Z,102767.69
2019-01-04T05:20:59.067Z,102769.19
2019-01-04T05:22:02.597Z,102757.84
2019-01-04T05:23:04.557Z,102756.34
2019-01-04T05:24:06.577Z,102761.75
2019-01-04T05:25:08.519Z,102753.94
2019-01-04T05:26:10.556Z,102753.38
2019-01-04T05:27:12.553Z,102753.74
2019-01-04T05:28:14.485Z,102754.48
2019-01-04T05:29:16.433Z,102753.74
2019-01-04T05:30:18.438Z,102761.02
2019-01-04T05:31:22.796Z,102764.72
2019-01-04T05:32:24.742Z,102762.11
2019-01-04T05:33:26.682Z,102756.17
2019-01-04T05:34:28.623Z,102751.34
2019-01-04T05:35:30.569Z,102754.14
2019-01-04T05:36:32.543Z,102756.55
2019-01-04T05:37:34.559Z,102751.34
2019-01-04T05:38:36.495Z,102745.77
2019-01-04T05:39:38.425Z,102738.69
2019-01-04T05:40:40.360Z,102741.86
2019-01-04T05:41:42.309Z,102740.93
2019-01-04T05:42:44.261Z,102735.36
2019-01-04T05:43:46.277Z,102738.69
2019-01-04T05:44:48.222Z,102738.69
2019-01-04T05:45:50.168Z,102740.73
2019-01-04T05:46:52.104Z,102740.00
2019-01-04T05:47:54.048Z,102750.03
2019-01-04T05:48:55.993Z,102745.77
2019-01-04T05:49:57.917Z,102742.59
2019-01-04T05:50:59.860Z,102748.94
2019-01-04T05:52:01.827Z,102746.33
2019-01-04T05:53:03.916Z,102747.47
2019-01-04T05:54:05.941Z,102747.67
2019-01-04T05:55:07.877Z,102750.27
2019-01-04T05:56:09.817Z,102743.59
2019-01-04T05:57:11.851Z,102745.70
2019-01-04T05:58:13.804Z,102740.69
2019-01-04T05:59:15.817Z,102737.91
2019-01-04T06:00:17.814Z,102739.05
2019-01-04T06:01:19.761Z,102731.07
2019-01-04T06:02:21.770Z,102737.64
2019-01-04T06:03:23.715Z,102727.80
2019-01-04T06:04:27.656Z,102733.39
2019-01-04T06:05:29.602Z,102730.63
2019-01-04T06:06:31.548Z,102723.00
2019-01-04T06:07:33.501Z,102724.31
2019-01-04T06:08:35.622Z,102726.55
2019-01-04T06:09:37.540Z,102717.06
2019-01-04T06:10:39.473Z,102714.27
2019-01-04T06:11:41.435Z,102718.37
2019-01-04T06:12:43.460Z,102723.38
2019-01-04T06:13:45.471Z,102717.80
2019-01-04T06:14:47.409Z,102706.08
2019-01-04T06:15:49.353Z,102708.13
2019-01-04T06:16:51.306Z,102717.60
2019-01-04T06:17:53.236Z,102714.63
2019-01-04T06:18:55.178Z,102718.53
2019-01-04T06:19:57.120Z,102716.47
2019-01-04T06:20:59.134Z,102716.27
2019-01-04T06:22:01.082Z,102716.08
2019-01-04T06:23:03.017Z,102714.21
2019-01-04T06:24:04.957Z,102716.58
2019-01-04T06:25:06.919Z,102720.48
2019-01-04T06:26:08.920Z,102709.88
2019-01-04T06:27:10.870Z,102696.30
2019-01-04T06:28:12.806Z,102689.78
2019-01-04T06:29:14.742Z,102700.37
2019-01-04T06:30:16.677Z,102683.42
2019-01-04T06:31:18.627Z,102690.30
2019-01-04T06:32:20.580Z,102682.30
2019-01-04T06:33:22.521Z,102684.66
2019-01-04T06:34:24.449Z,102689.30
2019-01-04T06:35:29.146Z,102680.36
2019-01-04T06:36:31.676Z,102685.20
2019-01-04T06:37:33.638Z,102687.61
2019-01-04T06:38:35.596Z,102682.58
2019-01-04T06:39:37.529Z,102677.00
2019-01-04T06:40:39.478Z,102674.56
2019-01-04T06:41:41.410Z,102675.30
2019-01-04T06:42:43.354Z,102675.11
2019-01-04T06:43:45.300Z,102668.03
2019-01-04T06:44:47.246Z,102665.80
2019-01-04T06:45:49.198Z,102661.66
2019-01-04T06:46:51.211Z,102668.17
2019-01-04T06:47:53.168Z,102665.00
2019-01-04T06:48:55.108Z,102663.50
2019-01-04T06:50:00.200Z,102659.59
2019-01-04T06:51:02.211Z,102662.38
2019-01-04T06:52:06.613Z,102665.34
2019-01-04T06:53:08.566Z,102668.31
2019-01-04T06:54:10.504Z,102670.91
2019-01-04T06:55:12.422Z,102669.41
2019-01-04T06:56:14.378Z,102669.22
2019-01-04T06:57:16.407Z,102661.78
2019-01-04T06:58:18.334Z,102664.75
2019-01-04T06:59:20.278Z,102657.11
2019-01-04T07:00:24.354Z,102655.81
2019-01-04T07:01:28.390Z,102656.52
2019-01-04T07:02:30.451Z,102657.44
2019-01-04T07:03:32.390Z,102666.35
2019-01-04T07:04:34.329Z,102656.87
2019-01-04T07:05:36.284Z,102665.78
2019-01-04T07:06:38.278Z,102673.59
2019-01-04T07:07:40.256Z,102670.02
2019-01-04T07:08:42.261Z,102666.48
2019-01-04T07:09:44.201Z,102673.36
2019-01-04T07:10:46.141Z,102677.99
2019-01-04T07:11:48.100Z,102670.55
2019-01-04T07:12:50.141Z,102678.36
2019-01-04T07:13:52.156Z,102672.02
2019-01-04T07:14:54.106Z,102670.52
2019-01-04T07:15:56.033Z,102669.22
2019-01-04T07:16:59.624Z,102671.82
2019-01-04T07:18:01.578Z,102675.16
2019-01-04T07:19:03.540Z,102676.45
2019-01-04T07:20:05.488Z,102677.19
2019-01-04T07:21:07.436Z,102673.99
2019-01-04T07:22:09.384Z,102673.66
2019-01-04T07:23:11.318Z,102672.69
2019-01-04T07:24:13.347Z,102671.76
2019-01-04T07:25:15.293Z,102678.26
2019-01-04T07:26:17.252Z,102674.73
2019-01-04T07:27:19.277Z,102678.06
2019-01-04T07:28:21.309Z,102682.89
2019-01-04T07:29:23.255Z,102684.20
2019-01-04T07:30:25.182Z,102684.77
2019-01-04T07:31:27.112Z,102681.09
2019-01-04T07:32:29.070Z,102685.77
2019-01-04T07:33:31.037Z,102691.93
2019-01-04T07:34:33.055Z,102683.83
2019-01-04T07:35:35.004Z,102689.30
2019-01-04T07:36:36.929Z,102682.45
2019-01-04T07:37:38.903Z,102684.38
2019-01-04T07:38:40.914Z,102680.87
2019-01-04T07:39:42.846Z,102672.53
2019-01-04T07:40:44.783Z,102672.19
2019-01-04T07:41:46.721Z,102671.31
2019-01-04T07:42:48.689Z,102671.34
2019-01-04T07:43:51.064Z,102667.47
2019-01-04T07:44:53.013Z,102670.83
2019-01-04T07:45:55.021Z,102679.77
2019-01-04T07:46:57.442Z,102674.05
2019-01-04T07:47:59.445Z,102676.86
2019-01-04T07:49:01.383Z,102675.38
2019-01-04T07:50:03.331Z,102669.07
2019-01-04T07:51:05.405Z,102671.87
2019-01-04T07:52:07.359Z,102680.61
2019-01-04T07:53:09.321Z,102670.77
2019-01-04T07:54:11.258Z,102670.02
2019-01-04T07:55:13.206Z,102663.88
2019-01-04T07:56:15.218Z,102662.39
2019-01-04T07:57:17.151Z,102661.09
2019-01-04T07:58:19.121Z,102665.73
2019-01-04T07:59:21.063Z,102665.36
2019-01-04T08:00:25.141Z,102667.40
2019-01-04T08:01:27.075Z,102663.86
2019-01-04T08:02:29.009Z,102665.16
2019-01-04T08:03:30.960Z,102678.18
2019-01-04T08:04:32.891Z,102666.27
2019-01-04T08:05:35.843Z,102665.90
2019-01-04T08:06:37.836Z,102669.80
2019-01-04T08:07:39.778Z,102659.94
2019-01-04T08:08:42.169Z,102656.96
2019-01-04T08:09:44.128Z,102645.62
2019-01-04T08:10:46.062Z,102656.20
2019-01-04T08:11:49.147Z,102657.50
2019-01-04T08:12:51.122Z,102654.11
2019-01-04T08:13:53.072Z,102651.13
2019-01-04T08:14:55.014Z,102653.17
2019-01-04T08:15:56.972Z,102651.88
2019-01-04T08:16:58.902Z,102647.97
2019-01-04T08:18:00.857Z,102656.14
2019-01-04T08:19:02.813Z,102655.95
2019-01-04T08:20:04.759Z,102650.17
2019-01-04T08:21:06.704Z,102648.51
2019-01-04T08:22:08.646Z,102650.34
2019-01-04T08:23:12.378Z,102644.77
2019-01-04T08:24:14.305Z,102648.31
2019-01-04T08:25:16.249Z,102646.45
2019-01-04T08:26:18.181Z,102644.02
2019-01-04T08:27:20.120Z,102645.31
2019-01-04T08:28:22.077Z,102642.15
2019-01-04T08:29:24.027Z,102641.72
2019-01-04T08:30:25.957Z,102641.72
2019-01-04T08:31:27.901Z,102639.34
2019-01-04T08:32:29.830Z,102636.52
2019-01-04T08:33:31.796Z,102639.85
2019-01-04T08:34:35.507Z,102632.41
2019-01-04T08:35:37.449Z,102633.72
2019-01-04T08:36:39.457Z,102632.22
2019-01-04T08:37:41.402Z,102633.89
2019-01-04T08:38:43.390Z,102634.45
2019-01-04T08:39:45.338Z,102632.02
2019-01-04T08:40:47.402Z,102635.92
2019-01-04T08:41:49.333Z,102632.95
2019-01-04T08:42:51.284Z,102630.16
2019-01-04T08:43:53.332Z,102623.65
2019-01-04T08:44:55.338Z,102624.02
2019-01-04T08:45:57.277Z,102621.05
2019-01-04T08:46:59.223Z,102624.02
2019-01-04T08:48:01.173Z,102617.31
2019-01-04T08:49:03.210Z,102620.48
2019-01-04T08:50:05.161Z,102611.55
2019-01-04T08:51:07.117Z,102606.34
2019-01-04T08:52:09.131Z,102604.48
2019-01-04T08:53:11.165Z,102601.50
2019-01-04T08:54:13.157Z,102597.60
2019-01-04T08:55:15.159Z,102595.00
2019-01-04T08:56:17.138Z,102597.41
2019-01-04T08:57:19.156Z,102593.88
2019-01-04T08:58:21.111Z,102601.68
2019-01-04T08:59:23.153Z,102589.97
2019-01-04T09:00:25.111Z,102586.06
2019-01-04T09:01:27.041Z,102586.63
2019-01-04T09:02:28.975Z,102586.44
2019-01-04T09:03:30.908Z,102582.90
2019-01-04T09:04:32.880Z,102576.39
2019-01-04T09:05:34.821Z,102568.59
2019-01-04T09:06:36.773Z,102560.78
2019-01-04T09:07:38.713Z,102549.21
2019-01-04T09:08:40.663Z,102558.87
2019-01-04T09:09:42.648Z,102565.75
2019-01-04T09:10:44.591Z,102559.25
2019-01-04T09:11:46.609Z,102553.11
2019-01-04T09:12:48.548Z,102549.58
2019-01-04T09:13:50.492Z,102557.39
2019-01-04T09:14:52.539Z,102554.41
2019-01-04T09:15:54.499Z,102553.48
2019-01-04T09:16:56.491Z,102562.95
2019-01-04T09:17:58.437Z,102562.42
2019-01-04T09:19:00.465Z,102558.69
2019-01-04T09:20:02.447Z,102553.84
2019-01-04T09:21:04.463Z,102567.05
2019-01-04T09:22:06.417Z,102557.02
2019-01-04T09:23:08.365Z,102563.33
2019-01-04T09:24:10.302Z,102552.18
2019-01-04T09:25:12.282Z,102547.72
2019-01-04T09:26:14.389Z,102546.05
2019-01-04T09:27:16.340Z,102542.88
2019-01-04T09:28:18.274Z,102538.78
2019-01-04T09:29:20.230Z,102541.75
2019-01-04T09:30:24.031Z,102530.98
2019-01-04T09:31:25.986Z,102538.41
2019-01-04T09:32:28.015Z,102539.34
2019-01-04T09:33:29.951Z,102539.16
2019-01-04T09:34:34.074Z,102534.52
2019-01-04T09:35:36.019Z,102527.81
2019-01-04T09:36:37.980Z,102528.55
2019-01-04T09:37:39.988Z,102522.61
2019-01-04T09:38:41.919Z,102516.84
2019-01-04T09:39:43.855Z,102516.47
2019-01-04T09:40:45.832Z,102513.88
2019-01-04T09:41:47.844Z,102512.01
2019-01-04T09:42:49.779Z,102510.70
2019-01-04T09:43:51.809Z,102509.03
2019-01-04T09:44:53.747Z,102509.60
2019-01-04T09:45:55.745Z,102515.73
2019-01-04T09:46:57.688Z,102513.13
2019-01-04T09:47:59.624Z,102511.27
2019-01-04T09:49:01.576Z,102504.59
2019-01-04T09:50:03.528Z,102508.30
2019-01-04T09:51:05.575Z,102507.37
2019-01-04T09:52:07.525Z,102505.89
2019-01-04T09:53:09.474Z,102506.62
2019-01-04T09:54:11.422Z,102506.26
2019-01-04T09:55:13.372Z,102501.05
2019-01-04T09:56:15.650Z,102505.89
2019-01-04T09:57:23.325Z,102502.36
2019-01-04T09:58:21.294Z,102499.38
2019-01-04T09:59:23.302Z,102497.16
2019-01-04T10:00:26.506Z,102488.78
2019-01-04T10:01:28.708Z,102482.84
2019-01-04T10:02:30.642Z,102478.94
2019-01-04T10:03:32.576Z,102480.61
2019-01-04T10:04:34.544Z,102488.41
2019-01-04T10:05:36.494Z,102487.48
2019-01-04T10:06:38.534Z,102480.61
2019-01-04T10:07:40.468Z,102486.75
2019-01-04T10:08:45.030Z,102481.91
2019-01-04T10:09:46.153Z,102488.98
2019-01-04T10:10:48.097Z,102481.91
2019-01-04T10:11:50.068Z,102481.54
2019-01-04T10:12:51.998Z,102489.91
2019-01-04T10:13:53.954Z,102484.14
2019-01-04T10:14:55.896Z,102499.02
2019-01-04T10:15:57.907Z,102500.31
2019-01-04T10:16:59.878Z,102504.78
2019-01-04T10:18:01.826Z,102496.41
2019-01-04T10:19:03.761Z,102487.67
2019-01-04T10:20:05.700Z,102490.28
2019-01-04T10:21:07.644Z,102487.11
2019-01-04T10:22:11.324Z,102487.31
2019-01-04T10:23:13.350Z,102480.80
2019-01-04T10:24:15.307Z,102475.97
2019-01-04T10:25:17.319Z,102483.59
2019-01-04T10:26:19.261Z,102470.03
2019-01-04T10:27:21.253Z,102463.52
2019-01-04T10:28:23.189Z,102458.69
2019-01-04T10:29:25.138Z,102454.61
2019-01-04T10:30:27.168Z,102456.09
2019-01-04T10:31:29.174Z,102457.95
2019-01-04T10:32:31.160Z,102449.77
2019-01-04T10:33:33.092Z,102444.56
2019-01-04T10:34:35.050Z,102440.48
2019-01-04T10:35:36.998Z,102439.17
2019-01-04T10:36:38.947Z,102440.66
2019-01-04T10:37:40.983Z,102438.44
2019-01-04T10:38:42.950Z,102444.56
2019-01-04T10:39:44.959Z,102449.21
2019-01-04T10:40:46.908Z,102454.61
2019-01-04T10:41:48.853Z,102451.08
2019-01-04T10:42:50.827Z,102442.34
2019-01-04T10:43:52.759Z,102443.27
2019-01-04T10:44:54.692Z,102428.95
2019-01-04T10:45:56.635Z,102436.20
2019-01-04T10:46:58.596Z,102442.34
2019-01-04T10:48:00.568Z,102444.20
2019-01-04T10:49:02.505Z,102440.30
2019-01-04T10:50:04.440Z,102445.13
2019-01-04T10:51:07.844Z,102443.46
2019-01-04T10:52:09.821Z,102444.39
2019-01-04T10:53:11.886Z,102440.13
2019-01-04T10:54:13.856Z,102442.16
2019-01-04T10:55:15.899Z,102442.16
2019-01-04T10:56:17.829Z,102438.26
2019-01-04T10:57:19.785Z,102436.59
2019-01-04T10:58:21.750Z,102447.36
2019-01-04T10:59:23.708Z,102444.77
2019-01-04T11:00:25.744Z,102443.83
2019-01-04T11:01:27.692Z,102450.70
2019-01-04T11:02:29.704Z,102453.31
2019-01-04T11:03:31.665Z,102446.06
2019-01-04T11:04:33.593Z,102452.01
2019-01-04T11:05:35.529Z,102449.77
2019-01-04T11:06:37.470Z,102457.58
2019-01-04T11:07:39.431Z,102455.54
2019-01-04T11:08:41.398Z,102455.17
2019-01-04T11:09:43.346Z,102452.56
2019-01-04T11:10:45.357Z,102459.63
2019-01-04T11:11:51.107Z,102460.74
2019-01-04T11:12:53.054Z,102466.31
2019-01-04T11:13:55.089Z,102471.71
2019-01-04T11:14:57.039Z,102476.72
2019-01-04T11:15:58.971Z,102478.22
2019-01-04T11:17:00.903Z,102475.05
2019-01-04T11:18:03.384Z,102472.82
2019-01-04T11:19:05.493Z,102473.39
2019-01-04T11:20:07.456Z,102472.08
2019-01-04T11:21:09.461Z,102473.39
2019-01-04T11:22:11.411Z,102472.08
2019-01-04T11:23:13.365Z,102467.25
2019-01-04T11:24:15.332Z,102471.34
2019-01-04T11:25:17.275Z,102471.71
2019-01-04T11:26:19.463Z,102476.36
2019-01-04T11:27:21.400Z,102471.52
2019-01-04T11:28:23.337Z,102478.95
2019-01-04T11:29:25.316Z,102472.45
2019-01-04T11:30:27.285Z,102471.52
2019-01-04T11:31:29.316Z,102464.28
2019-01-04T11:32:31.240Z,102463.34
2019-01-04T11:33:33.206Z,102459.81
2019-01-04T11:34:35.235Z,102464.64
2019-01-04T11:35:37.193Z,102461.67
2019-01-04T11:36:39.139Z,102458.00
2019-01-04T11:37:41.093Z,102457.03
2019-01-04T11:38:43.045Z,102455.73
2019-01-04T11:39:45.017Z,102453.87
2019-01-04T11:40:46.953Z,102455.54
2019-01-04T11:41:48.895Z,102452.20
2019-01-04T11:42:50.901Z,102462.23
2019-01-04T11:43:56.486Z,102457.27
2019-01-04T11:44:58.457Z,102458.00
2019-01-04T11:46:00.410Z,102458.00
2019-01-04T11:47:02.343Z,102446.63
2019-01-04T11:48:04.290Z,102448.89
2019-01-04T11:49:06.300Z,102453.13